createdAt,value
2018-04-13T00:01:38.780Z,9.57
2018-04-13T00:05:41.372Z,9.37
2018-04-13T00:09:44.059Z,10.07
2018-04-13T00:13:46.573Z,6.63
2018-04-13T00:17:49.412Z,7.10
2018-04-13T00:21:51.942Z,6.90
2018-04-13T00:25:54.491Z,6.23
2018-04-13T00:29:57.006Z,8.37
2018-04-13T00:33:59.546Z,6.63
2018-04-13T00:38:02.070Z,8.37
2018-04-13T00:42:05.398Z,8.37
2018-04-13T00:46:07.903Z,8.00
2018-04-13T00:50:11.223Z,8.80
2018-04-13T00:54:14.502Z,5.30
2018-04-13T00:58:17.047Z,11.70
2018-04-13T01:02:19.599Z,8.87
2018-04-13T01:06:22.211Z,9.33
2018-04-13T01:10:24.723Z,7.40
2018-04-13T01:14:27.280Z,10.97
2018-04-13T01:18:29.794Z,6.73
2018-04-13T01:22:32.348Z,6.20
2018-04-13T01:26:34.854Z,8.97
2018-04-13T01:30:41.138Z,6.70
2018-04-13T01:34:43.647Z,6.37
2018-04-13T01:38:46.190Z,9.63
2018-04-13T01:42:49.476Z,8.50
2018-04-13T01:46:55.900Z,11.10
2018-04-13T01:50:58.372Z,9.37
2018-04-13T01:55:00.941Z,13.17
2018-04-13T01:59:03.478Z,8.53
2018-04-13T02:03:06.014Z,7.27
2018-04-13T02:07:09.289Z,6.50
2018-04-13T02:11:11.919Z,6.57
2018-04-13T02:15:14.431Z,12.93
2018-04-13T02:19:16.979Z,11.37
2018-04-13T02:23:19.490Z,10.10
2018-04-13T02:27:22.031Z,9.90
2018-04-13T02:31:24.557Z,14.63
2018-04-13T02:35:27.179Z,12.37
2018-04-13T02:39:30.458Z,12.97
2018-04-13T02:43:33.186Z,14.60
2018-04-13T02:47:35.668Z,15.50
2018-04-13T02:51:38.520Z,12.50
2018-04-13T02:55:47.536Z,10.73
2018-04-13T02:59:50.093Z,14.77
2018-04-13T03:03:52.615Z,11.93
2018-04-13T03:07:55.158Z,12.67
2018-04-13T03:12:04.284Z,12.13
2018-04-13T03:16:06.854Z,14.63
2018-04-13T03:20:09.365Z,13.93
2018-04-13T03:24:11.906Z,11.13
2018-04-13T03:28:14.436Z,10.10
2018-04-13T03:32:16.978Z,10.53
2018-04-13T03:36:20.275Z,11.53
2018-04-13T03:40:23.199Z,9.57
2018-04-13T03:44:25.753Z,10.77
2018-04-13T03:48:29.041Z,14.93
2018-04-13T03:52:31.550Z,12.30
2018-04-13T03:56:34.118Z,13.90
2018-04-13T04:00:36.641Z,14.93
2018-04-13T04:04:39.279Z,13.30
2018-04-13T04:08:42.558Z,16.27
2018-04-13T04:12:45.191Z,13.90
2018-04-13T04:16:48.721Z,18.73
2018-04-13T04:21:02.943Z,19.03
2018-04-13T04:25:12.162Z,22.83
2018-04-13T04:29:14.718Z,20.67
2018-04-13T04:33:18.147Z,21.77
2018-04-13T04:37:20.691Z,17.47
2018-04-13T04:41:23.239Z,19.20
2018-04-13T04:45:26.079Z,18.80
2018-04-13T04:49:28.632Z,27.20
2018-04-13T04:53:31.178Z,27.67
2018-04-13T04:57:33.694Z,24.87
2018-04-13T05:01:36.623Z,27.10
2018-04-13T05:05:39.158Z,27.03
2018-04-13T05:09:41.898Z,21.90
2018-04-13T05:13:44.412Z,21.43
2018-04-13T05:17:46.959Z,20.83
2018-04-13T05:21:49.484Z,21.00
2018-04-13T05:25:52.066Z,25.97
2018-04-13T05:29:54.592Z,30.20
2018-04-13T05:33:57.134Z,30.10
2018-04-13T05:42:10.426Z,30.00
2018-04-13T05:50:21.606Z,31.73
2018-04-13T06:02:43.118Z,31.80
2018-04-13T06:06:45.966Z,26.40
2018-04-13T06:10:48.482Z,27.97
2018-04-13T06:14:51.026Z,28.97
2018-04-13T06:18:54.328Z,28.47
2018-04-13T06:22:56.871Z,27.93
2018-04-13T06:27:00.155Z,27.70
2018-04-13T06:31:02.708Z,27.07
2018-04-13T06:35:05.250Z,30.13
2018-04-13T06:39:07.796Z,21.13
2018-04-13T06:43:11.377Z,21.87
2018-04-13T06:47:13.939Z,23.17
2018-04-13T06:51:16.503Z,24.87
2018-04-13T06:55:19.151Z,28.80
2018-04-13T06:59:22.443Z,30.03
2018-04-13T07:03:25.219Z,26.73
2018-04-13T07:07:27.751Z,23.00
2018-04-13T07:11:31.258Z,22.57
2018-04-13T07:15:34.328Z,20.77
2018-04-13T07:28:09.206Z,25.73
2018-04-13T07:32:13.186Z,24.07
2018-04-13T07:40:25.283Z,34.00
2018-04-13T07:44:27.831Z,37.33
2018-04-13T07:48:30.342Z,29.30
2018-04-13T07:52:33.192Z,21.97
2018-04-13T07:56:36.418Z,22.87
2018-04-13T08:00:38.978Z,19.00
2018-04-13T08:04:41.519Z,24.20
2018-04-13T08:08:44.115Z,20.40
2018-04-13T08:12:47.595Z,21.97
2018-04-13T08:16:50.695Z,23.60
2018-04-13T08:25:04.627Z,25.07
2018-04-13T08:29:07.142Z,24.10
2018-04-13T08:33:10.455Z,25.67
2018-04-13T08:37:13.743Z,25.33
2018-04-13T08:41:16.292Z,23.23
2018-04-13T08:45:19.580Z,25.00
2018-04-13T08:49:22.145Z,21.87
2018-04-13T08:53:24.674Z,22.33
2018-04-13T08:57:27.531Z,23.43
2018-04-13T09:01:30.126Z,25.43
2018-04-13T09:05:35.335Z,23.50
2018-04-13T09:09:37.878Z,21.47
2018-04-13T09:13:40.443Z,22.30
2018-04-13T09:17:47.482Z,18.90
2018-04-13T09:21:50.039Z,33.13
2018-04-13T09:25:53.318Z,25.73
2018-04-13T09:29:55.874Z,24.70
2018-04-13T09:33:59.157Z,23.00
2018-04-13T09:38:01.731Z,23.17
2018-04-13T09:42:04.275Z,26.67
2018-04-13T09:46:06.828Z,26.13
2018-04-13T09:50:09.358Z,24.83
2018-04-13T09:54:11.902Z,27.50
2018-04-13T09:58:16.440Z,28.90
2018-04-13T10:02:21.089Z,21.80
2018-04-13T10:06:23.617Z,21.87
2018-04-13T10:10:26.183Z,23.03
2018-04-13T10:14:28.699Z,22.83
2018-04-13T10:18:31.263Z,26.27
2018-04-13T10:22:34.541Z,33.50
2018-04-13T10:26:37.670Z,27.70
2018-04-13T10:30:40.540Z,25.07
2018-04-13T10:34:43.143Z,25.20
2018-04-13T10:38:45.643Z,23.30
2018-04-13T10:42:48.194Z,28.50
2018-04-13T10:46:55.390Z,22.13
2018-04-13T10:50:58.027Z,29.43
2018-04-13T10:55:00.574Z,30.10
2018-04-13T10:59:03.211Z,29.17
2018-04-13T11:03:05.726Z,28.37
2018-04-13T11:07:08.266Z,27.43
2018-04-13T11:11:11.662Z,26.10
2018-04-13T11:15:14.581Z,33.13
2018-04-13T11:19:17.095Z,34.00
2018-04-13T11:23:20.502Z,31.50
2018-04-13T11:27:25.228Z,27.00
2018-04-13T11:31:27.776Z,32.57
2018-04-13T11:35:30.304Z,26.13
2018-04-13T11:39:33.699Z,28.67
2018-04-13T11:43:36.217Z,26.63
2018-04-13T11:47:38.907Z,25.93
2018-04-13T11:51:41.419Z,28.33
2018-04-13T11:55:43.970Z,31.83
2018-04-13T11:59:46.487Z,33.10
2018-04-13T12:03:49.039Z,33.53
2018-04-13T12:07:51.562Z,30.63
2018-04-13T12:11:54.106Z,36.57
2018-04-13T12:15:56.711Z,32.93
2018-04-13T12:19:59.271Z,34.03
2018-04-13T12:24:01.796Z,33.10
2018-04-13T12:28:04.450Z,29.87
2018-04-13T12:32:06.969Z,33.33
2018-04-13T12:36:09.518Z,27.90
2018-04-13T12:40:12.039Z,28.30
2018-04-13T12:44:14.597Z,35.13
2018-04-13T12:48:17.118Z,27.63
2018-04-13T12:52:19.770Z,22.63
2018-04-13T12:56:22.334Z,23.13
2018-04-13T13:00:25.931Z,18.37
2018-04-13T13:04:41.582Z,17.00
2018-04-13T13:08:45.045Z,14.67
2018-04-13T13:12:48.293Z,17.60
2018-04-13T13:16:57.531Z,14.27
2018-04-13T13:21:03.043Z,13.30
2018-04-13T13:25:05.595Z,11.63
2018-04-13T13:29:08.122Z,11.50
2018-04-13T13:33:15.696Z,9.97
2018-04-13T13:37:18.211Z,9.30
2018-04-13T13:41:21.516Z,7.73
2018-04-13T13:45:24.030Z,6.87
2018-04-13T13:49:26.564Z,8.87
2018-04-13T13:53:29.104Z,4.60
2018-04-13T13:57:32.556Z,3.83
2018-04-13T14:01:35.105Z,4.10
2018-04-13T14:05:37.647Z,2.93
2018-04-13T14:09:40.654Z,3.17
2018-04-13T14:13:48.505Z,4.87
2018-04-13T14:17:53.163Z,3.73
2018-04-13T14:21:55.726Z,3.53
2018-04-13T14:25:58.239Z,2.67
2018-04-13T14:30:00.776Z,3.43
2018-04-13T14:34:03.549Z,3.57
2018-04-13T14:38:06.191Z,3.20
2018-04-13T14:42:13.499Z,3.87
2018-04-13T14:46:16.066Z,3.83
2018-04-13T14:50:18.585Z,5.47
2018-04-13T14:54:21.139Z,2.93
2018-04-13T14:58:23.668Z,3.87
2018-04-13T15:02:27.008Z,4.50
2018-04-13T15:06:30.346Z,5.70
2018-04-13T15:10:32.895Z,3.87
2018-04-13T15:14:35.406Z,4.13
2018-04-13T15:18:38.046Z,5.37
2018-04-13T15:22:41.340Z,4.30
2018-04-13T15:26:43.879Z,5.23
2018-04-13T15:30:46.427Z,5.13
2018-04-13T15:34:50.671Z,7.67
2018-04-13T15:38:53.199Z,4.57
2018-04-13T15:42:56.699Z,4.97
2018-04-13T15:47:00.242Z,8.43
2018-04-13T15:51:02.786Z,6.60
2018-04-13T15:55:05.323Z,10.87
2018-04-13T15:59:07.873Z,10.37
2018-04-13T16:03:10.388Z,8.47
2018-04-13T16:07:12.934Z,8.60
2018-04-13T16:11:15.471Z,5.50
2018-04-13T16:15:19.079Z,4.10
2018-04-13T16:19:21.590Z,4.27
2018-04-13T16:23:24.146Z,4.97
2018-04-13T16:27:27.425Z,5.90
2018-04-13T16:31:29.982Z,5.77
2018-04-13T16:35:40.476Z,5.83
2018-04-13T16:39:43.872Z,5.00
2018-04-13T16:43:46.389Z,6.77
2018-04-13T16:47:48.935Z,10.57
2018-04-13T16:51:53.431Z,9.87
2018-04-13T16:55:59.770Z,6.53
2018-04-13T17:00:07.953Z,5.50
2018-04-13T17:04:10.883Z,4.63
2018-04-13T17:08:16.539Z,6.23
2018-04-13T17:12:24.051Z,8.17
2018-04-13T17:16:26.567Z,5.20
2018-04-13T17:20:29.200Z,11.97
2018-04-13T17:24:31.731Z,7.83
2018-04-13T17:28:42.585Z,5.63
2018-04-13T17:32:45.102Z,8.03
2018-04-13T17:36:47.637Z,5.23
2018-04-13T17:40:54.202Z,6.83
2018-04-13T17:49:24.995Z,16.50
2018-04-13T17:53:28.570Z,12.23
2018-04-13T17:57:33.871Z,12.10
2018-04-13T18:01:36.425Z,13.87
2018-04-13T18:05:38.955Z,11.03
2018-04-13T18:09:41.584Z,12.43
2018-04-13T18:13:44.143Z,10.93
2018-04-13T18:17:46.795Z,10.90
2018-04-13T18:21:49.555Z,12.47
2018-04-13T18:25:52.102Z,11.57
2018-04-13T18:29:55.390Z,14.00
2018-04-13T18:34:00.103Z,24.03
2018-04-13T18:38:02.644Z,16.20
2018-04-13T18:42:05.202Z,46.37
2018-04-13T18:46:08.529Z,36.00
2018-04-13T18:50:11.094Z,25.73
2018-04-13T18:54:14.608Z,14.10
2018-04-13T18:58:17.198Z,17.17
2018-04-13T19:02:20.736Z,20.93
2018-04-13T19:06:28.595Z,16.40
2018-04-13T19:10:31.119Z,11.27
2018-04-13T19:14:34.731Z,10.97
2018-04-13T19:18:37.246Z,11.00
2018-04-13T19:22:41.600Z,15.70
2018-04-13T19:26:45.986Z,14.77
2018-04-13T19:30:48.570Z,14.83
2018-04-13T19:34:54.289Z,13.83
2018-04-13T19:38:58.105Z,13.70
2018-04-13T19:43:00.671Z,16.90
2018-04-13T19:47:05.503Z,16.43
2018-04-13T19:51:08.038Z,18.33
2018-04-13T19:55:11.450Z,16.37
2018-04-13T19:59:13.979Z,20.10
2018-04-13T20:03:19.323Z,26.57
2018-04-13T20:07:21.878Z,14.07
2018-04-13T20:11:24.427Z,15.37
2018-04-13T20:15:26.968Z,14.40
2018-04-13T20:19:36.211Z,13.10
2018-04-13T20:23:38.908Z,26.60
2018-04-13T20:27:42.480Z,27.23
2018-04-13T20:31:44.996Z,11.63
2018-04-13T20:35:47.672Z,10.77
2018-04-13T20:39:52.950Z,11.57
2018-04-13T20:43:55.507Z,9.77
2018-04-13T20:47:58.042Z,11.10
2018-04-13T20:52:00.679Z,13.73
2018-04-13T20:56:03.243Z,12.37
2018-04-13T21:00:05.786Z,8.43
2018-04-13T21:04:08.318Z,12.77
2018-04-13T21:08:11.895Z,17.60
2018-04-13T21:12:18.771Z,21.93
2018-04-13T21:16:21.900Z,32.67
2018-04-13T21:20:27.682Z,16.07
2018-04-13T21:24:30.385Z,12.73
2018-04-13T21:28:32.946Z,14.97
2018-04-13T21:32:36.352Z,15.70
2018-04-13T21:36:39.849Z,23.27
2018-04-13T21:40:42.399Z,22.30
2018-04-13T21:44:44.956Z,15.80
2018-04-13T21:48:47.555Z,14.43
2018-04-13T21:52:50.081Z,9.87
2018-04-13T21:56:53.618Z,10.70
2018-04-13T22:00:56.143Z,12.63
2018-04-13T22:04:59.459Z,11.30
2018-04-13T22:09:01.972Z,11.27
2018-04-13T22:13:16.367Z,11.30
2018-04-13T22:17:18.910Z,11.97
2018-04-13T22:21:21.955Z,13.03
2018-04-13T22:25:24.545Z,16.23
2018-04-13T22:29:27.476Z,13.03
2018-04-13T22:33:29.995Z,18.40
2018-04-13T22:37:32.639Z,21.57
2018-04-13T22:41:35.171Z,13.40
2018-04-13T22:45:37.741Z,14.40
2018-04-13T22:49:41.262Z,12.13
2018-04-13T22:53:43.887Z,11.17
2018-04-13T22:57:46.420Z,10.63
2018-04-13T23:01:48.959Z,10.10
2018-04-13T23:05:51.475Z,11.23
2018-04-13T23:09:54.018Z,11.00
2018-04-13T23:13:56.532Z,14.57
2018-04-13T23:17:59.086Z,14.37
2018-04-13T23:22:01.603Z,13.60
2018-04-13T23:26:04.911Z,15.63
2018-04-13T23:30:07.432Z,14.50
2018-04-13T23:34:10.747Z,13.87
2018-04-13T23:38:13.267Z,11.77
2018-04-13T23:42:17.052Z,13.63
2018-04-13T23:46:19.570Z,13.37
2018-04-13T23:50:22.425Z,16.87
2018-04-13T23:54:24.935Z,12.83
2018-04-13T23:58:27.595Z,13.97
